sensor_id;sensor_type;location;lat;lon;timestamp;pressure;altitude;pressure_sealevel;temperature;humidity
6567;BME280;3317;43.994;22.878;2023-03-18T00:00:28;101626.25;;;6.41;63.03
6567;BME280;3317;43.994;22.878;2023-03-18T00:02:55;101625.50;;;6.39;62.64
6567;BME280;3317;43.994;22.878;2023-03-18T00:05:22;101615.25;;;6.31;62.84
6567;BME280;3317;43.994;22.878;2023-03-18T00:07:50;101624.00;;;6.34;62.78
6567;BME280;3317;43.994;22.878;2023-03-18T00:10:18;101629.47;;;6.33;62.21
6567;BME280;3317;43.994;22.878;2023-03-18T00:12:45;101619.78;;;6.30;62.64
6567;BME280;3317;43.994;22.878;2023-03-18T00:15:13;101621.72;;;6.28;62.77
6567;BME280;3317;43.994;22.878;2023-03-18T00:17:43;101616.53;;;6.25;62.99
6567;BME280;3317;43.994;22.878;2023-03-18T00:20:11;101604.66;;;6.15;62.92
6567;BME280;3317;43.994;22.878;2023-03-18T00:22:39;101618.66;;;6.20;63.24
6567;BME280;3317;43.994;22.878;2023-03-18T00:25:11;101611.69;;;6.17;63.31
6567;BME280;3317;43.994;22.878;2023-03-18T00:27:38;101617.16;;;6.16;62.84
6567;BME280;3317;43.994;22.878;2023-03-18T00:30:07;101606.59;;;6.13;62.28
6567;BME280;3317;43.994;22.878;2023-03-18T00:32:34;101601.63;;;6.06;63.11
6567;BME280;3317;43.994;22.878;2023-03-18T00:35:03;101604.88;;;6.12;62.70
6567;BME280;3317;43.994;22.878;2023-03-18T00:37:31;101602.41;;;6.09;62.26
6567;BME280;3317;43.994;22.878;2023-03-18T00:40:02;101604.31;;;6.06;61.71
6567;BME280;3317;43.994;22.878;2023-03-18T00:42:32;101595.88;;;5.98;61.34
6567;BME280;3317;43.994;22.878;2023-03-18T00:45:04;101601.81;;;6.03;61.83
6567;BME280;3317;43.994;22.878;2023-03-18T00:47:31;101593.00;;;6.01;60.92
6567;BME280;3317;43.994;22.878;2023-03-18T00:49:58;101601.25;;;5.98;61.28
6567;BME280;3317;43.994;22.878;2023-03-18T00:52:26;101581.31;;;5.88;61.39
6567;BME280;3317;43.994;22.878;2023-03-18T00:54:53;101599.72;;;5.94;61.37
6567;BME280;3317;43.994;22.878;2023-03-18T00:57:20;101599.06;;;5.90;60.87
6567;BME280;3317;43.994;22.878;2023-03-18T00:59:48;101598.19;;;5.90;60.77
6567;BME280;3317;43.994;22.878;2023-03-18T01:02:15;101586.13;;;5.83;61.15
6567;BME280;3317;43.994;22.878;2023-03-18T01:04:42;101590.34;;;5.87;60.42
6567;BME280;3317;43.994;22.878;2023-03-18T01:07:10;101601.31;;;5.84;61.07
6567;BME280;3317;43.994;22.878;2023-03-18T01:09:37;101597.97;;;5.80;60.79
6567;BME280;3317;43.994;22.878;2023-03-18T01:12:06;101592.78;;;5.77;60.99
6567;BME280;3317;43.994;22.878;2023-03-18T01:14:34;101600.28;;;5.72;61.30
6567;BME280;3317;43.994;22.878;2023-03-18T01:17:04;101604.03;;;5.69;62.14
6567;BME280;3317;43.994;22.878;2023-03-18T01:19:31;101598.84;;;5.66;62.43
6567;BME280;3317;43.994;22.878;2023-03-18T01:21:58;101589.56;;;5.57;62.58
6567;BME280;3317;43.994;22.878;2023-03-18T01:24:25;101606.38;;;5.61;62.39
6567;BME280;3317;43.994;22.878;2023-03-18T01:26:53;101601.19;;;5.58;62.35
6567;BME280;3317;43.994;22.878;2023-03-18T01:29:20;101591.03;;;5.48;61.32
6567;BME280;3317;43.994;22.878;2023-03-18T01:31:48;101588.91;;;5.54;61.07
6567;BME280;3317;43.994;22.878;2023-03-18T01:34:17;101597.94;;;5.53;60.92
6567;BME280;3317;43.994;22.878;2023-03-18T01:36:44;101545.28;;;5.21;61.32
6567;BME280;3317;43.994;22.878;2023-03-18T01:39:12;101598.97;;;5.50;62.38
6567;BME280;3317;43.994;22.878;2023-03-18T01:41:39;101597.38;;;5.47;61.48
6567;BME280;3317;43.994;22.878;2023-03-18T01:44:11;101590.66;;;5.40;62.01
6567;BME280;3317;43.994;22.878;2023-03-18T01:46:40;101592.19;;;5.44;62.15
6567;BME280;3317;43.994;22.878;2023-03-18T01:49:11;101595.75;;;5.45;62.58
6567;BME280;3317;43.994;22.878;2023-03-18T01:51:42;101596.63;;;5.45;62.37
6567;BME280;3317;43.994;22.878;2023-03-18T01:54:12;101599.59;;;5.41;61.81
6567;BME280;3317;43.994;22.878;2023-03-18T01:56:42;101599.69;;;5.39;61.90
6567;BME280;3317;43.994;22.878;2023-03-18T01:59:10;101608.72;;;5.38;62.82
6567;BME280;3317;43.994;22.878;2023-03-18T02:01:41;101608.91;;;5.35;63.10
6567;BME280;3317;43.994;22.878;2023-03-18T02:04:10;101605.34;;;5.34;62.86
6567;BME280;3317;43.994;22.878;2023-03-18T02:06:37;101596.81;;;5.28;62.41
6567;BME280;3317;43.994;22.878;2023-03-18T02:09:06;101608.91;;;5.35;62.64
6567;BME280;3317;43.994;22.878;2023-03-18T02:11:36;101612.44;;;5.35;62.86
6567;BME280;3317;43.994;22.878;2023-03-18T02:14:04;101608.91;;;5.35;62.62
6567;BME280;3317;43.994;22.878;2023-03-18T02:16:34;101592.41;;;5.27;62.57
6567;BME280;3317;43.994;22.878;2023-03-18T02:19:10;101612.44;;;5.35;63.20
6567;BME280;3317;43.994;22.878;2023-03-18T02:21:45;101613.41;;;5.34;63.79
6567;BME280;3317;43.994;22.878;2023-03-18T02:24:27;101615.25;;;5.34;63.58
6567;BME280;3317;43.994;22.878;2023-03-18T02:27:00;101608.03;;;5.34;63.42
6567;BME280;3317;43.994;22.878;2023-03-18T02:29:32;101620.63;;;5.34;62.66
6567;BME280;3317;43.994;22.878;2023-03-18T02:32:03;101613.34;;;5.36;62.53
6567;BME280;3317;43.994;22.878;2023-03-18T02:34:33;101611.59;;;5.35;62.19
6567;BME280;3317;43.994;22.878;2023-03-18T02:37:01;101609.13;;;5.32;62.61
6567;BME280;3317;43.994;22.878;2023-03-18T02:39:28;101613.53;;;5.33;63.43
6567;BME280;3317;43.994;22.878;2023-03-18T02:41:56;101613.72;;;5.30;63.22
6567;BME280;3317;43.994;22.878;2023-03-18T02:44:23;101613.63;;;5.31;63.15
6567;BME280;3317;43.994;22.878;2023-03-18T02:46:53;101548.97;;;4.91;62.65
6567;BME280;3317;43.994;22.878;2023-03-18T02:49:23;101600.69;;;5.24;63.02
6567;BME280;3317;43.994;22.878;2023-03-18T02:51:50;101618.16;;;5.31;63.60
6567;BME280;3317;43.994;22.878;2023-03-18T02:54:19;101616.50;;;5.28;64.71
6567;BME280;3317;43.994;22.878;2023-03-18T02:56:47;101617.34;;;5.29;64.51
6567;BME280;3317;43.994;22.878;2023-03-18T02:59:14;101610.25;;;5.28;64.69
6567;BME280;3317;43.994;22.878;2023-03-18T03:01:43;101616.59;;;5.27;64.18
6567;BME280;3317;43.994;22.878;2023-03-18T03:04:13;101622.94;;;5.26;63.79
6567;BME280;3317;43.994;22.878;2023-03-18T03:06:41;101626.59;;;5.25;64.18
6567;BME280;3317;43.994;22.878;2023-03-18T03:09:10;101633.88;;;5.22;63.93
6567;BME280;3317;43.994;22.878;2023-03-18T03:11:39;101630.44;;;5.20;64.45
6567;BME280;3317;43.994;22.878;2023-03-18T03:14:06;101631.28;;;5.21;64.06
6567;BME280;3317;43.994;22.878;2023-03-18T03:16:34;101630.53;;;5.19;63.48
6567;BME280;3317;43.994;22.878;2023-03-18T03:19:01;101636.84;;;5.18;63.46
6567;BME280;3317;43.994;22.878;2023-03-18T03:21:30;101637.91;;;5.15;63.46
6567;BME280;3317;43.994;22.878;2023-03-18T03:23:58;101638.03;;;5.14;63.74
6567;BME280;3317;43.994;22.878;2023-03-18T03:26:25;101638.88;;;5.14;63.61
6567;BME280;3317;43.994;22.878;2023-03-18T03:28:52;101638.09;;;5.12;63.81
6567;BME280;3317;43.994;22.878;2023-03-18T03:31:19;101639.84;;;5.13;63.65
6567;BME280;3317;43.994;22.878;2023-03-18T03:33:46;101640.88;;;5.11;63.54
6567;BME280;3317;43.994;22.878;2023-03-18T03:36:16;101641.97;;;5.08;64.11
6567;BME280;3317;43.994;22.878;2023-03-18T03:38:44;101622.06;;;4.96;63.53
6567;BME280;3317;43.994;22.878;2023-03-18T03:41:12;101628.81;;;5.03;63.76
6567;BME280;3317;43.994;22.878;2023-03-18T03:43:40;101640.41;;;5.04;65.36
6567;BME280;3317;43.994;22.878;2023-03-18T03:46:08;101640.41;;;5.04;65.92
6567;BME280;3317;43.994;22.878;2023-03-18T03:48:36;101648.38;;;5.05;66.33
6567;BME280;3317;43.994;22.878;2023-03-18T03:51:04;101644.25;;;5.00;66.38
6567;BME280;3317;43.994;22.878;2023-03-18T03:53:32;101645.78;;;5.04;66.23
6567;BME280;3317;43.994;22.878;2023-03-18T03:56:02;101639.56;;;5.03;65.95
6567;BME280;3317;43.994;22.878;2023-03-18T03:58:29;101645.78;;;5.04;65.69
6567;BME280;3317;43.994;22.878;2023-03-18T04:00:56;101652.03;;;5.04;64.56
6567;BME280;3317;43.994;22.878;2023-03-18T04:03:24;101649.25;;;5.06;63.82
6567;BME280;3317;43.994;22.878;2023-03-18T04:05:52;101649.34;;;5.04;63.76
6567;BME280;3317;43.994;22.878;2023-03-18T04:08:19;101653.66;;;5.07;64.51
6567;BME280;3317;43.994;22.878;2023-03-18T04:10:46;101631.00;;;4.97;65.09
6567;BME280;3317;43.994;22.878;2023-03-18T04:13:14;101647.31;;;5.08;65.33
6567;BME280;3317;43.994;22.878;2023-03-18T04:15:41;101645.41;;;5.10;65.67
6567;BME280;3317;43.994;22.878;2023-03-18T04:18:09;101641.84;;;5.10;66.46
6567;BME280;3317;43.994;22.878;2023-03-18T04:20:37;101645.41;;;5.10;66.24
6567;BME280;3317;43.994;22.878;2023-03-18T04:23:06;101644.44;;;5.11;66.11
6567;BME280;3317;43.994;22.878;2023-03-18T04:25:34;101645.41;;;5.10;66.32
6567;BME280;3317;43.994;22.878;2023-03-18T04:28:01;101650.78;;;5.10;66.67
6567;BME280;3317;43.994;22.878;2023-03-18T04:30:30;101648.19;;;5.08;66.92
6567;BME280;3317;43.994;22.878;2023-03-18T04:32:57;101656.16;;;5.10;67.03
6567;BME280;3317;43.994;22.878;2023-03-18T04:35:27;101654.44;;;5.09;67.06
6567;BME280;3317;43.994;22.878;2023-03-18T04:37:54;101666.91;;;5.10;66.29
6567;BME280;3317;43.994;22.878;2023-03-18T04:40:21;101657.47;;;5.03;65.88
6567;BME280;3317;43.994;22.878;2023-03-18T04:42:48;101667.75;;;5.11;65.43
6567;BME280;3317;43.994;22.878;2023-03-18T04:45:16;101658.94;;;5.08;65.04
6567;BME280;3317;43.994;22.878;2023-03-18T04:47:44;101653.06;;;5.02;64.73
6567;BME280;3317;43.994;22.878;2023-03-18T04:50:12;101658.16;;;5.06;64.47
6567;BME280;3317;43.994;22.878;2023-03-18T04:52:40;101662.56;;;5.07;64.61
6567;BME280;3317;43.994;22.878;2023-03-18T04:55:08;101663.63;;;5.05;64.24
6567;BME280;3317;43.994;22.878;2023-03-18T04:57:36;101671.69;;;5.05;64.01
6567;BME280;3317;43.994;22.878;2023-03-18T05:00:05;101678.00;;;5.04;64.43
6567;BME280;3317;43.994;22.878;2023-03-18T05:02:32;101679.94;;;5.02;64.82
6567;BME280;3317;43.994;22.878;2023-03-18T05:05:01;101686.28;;;5.01;65.03
6567;BME280;3317;43.994;22.878;2023-03-18T05:07:28;101685.59;;;4.97;66.07
6567;BME280;3317;43.994;22.878;2023-03-18T05:09:55;101685.69;;;4.96;65.98
6567;BME280;3317;43.994;22.878;2023-03-18T05:12:22;101693.97;;;4.92;67.32
6567;BME280;3317;43.994;22.878;2023-03-18T05:14:50;101692.38;;;4.88;67.53
6567;BME280;3317;43.994;22.878;2023-03-18T05:17:17;101693.53;;;4.84;68.18
6567;BME280;3317;43.994;22.878;2023-03-18T05:19:47;101697.38;;;4.80;68.70
6567;BME280;3317;43.994;22.878;2023-03-18T05:22:16;101711.59;;;4.82;69.33
6567;BME280;3317;43.994;22.878;2023-03-18T05:24:45;101705.44;;;4.80;69.80
6567;BME280;3317;43.994;22.878;2023-03-18T05:27:14;101701.88;;;4.79;69.97
6567;BME280;3317;43.994;22.878;2023-03-18T05:29:41;101708.00;;;4.82;69.50
6567;BME280;3317;43.994;22.878;2023-03-18T05:32:09;101705.13;;;4.85;69.02
6567;BME280;3317;43.994;22.878;2023-03-18T05:34:38;101703.41;;;4.84;69.46
6567;BME280;3317;43.994;22.878;2023-03-18T05:37:06;101711.38;;;4.85;69.49
6567;BME280;3317;43.994;22.878;2023-03-18T05:39:36;101711.19;;;4.88;68.88
6567;BME280;3317;43.994;22.878;2023-03-18T05:42:03;101720.97;;;4.89;69.30
6567;BME280;3317;43.994;22.878;2023-03-18T05:44:31;101724.91;;;4.84;70.75
6567;BME280;3317;43.994;22.878;2023-03-18T05:46:58;101719.44;;;4.85;71.23
6567;BME280;3317;43.994;22.878;2023-03-18T05:49:25;101723.94;;;4.85;71.70
6567;BME280;3317;43.994;22.878;2023-03-18T05:51:52;101721.56;;;4.80;72.47
6567;BME280;3317;43.994;22.878;2023-03-18T05:54:20;101721.81;;;4.75;73.22
6567;BME280;3317;43.994;22.878;2023-03-18T05:56:48;101718.00;;;4.79;72.98
6567;BME280;3317;43.994;22.878;2023-03-18T05:59:16;101724.00;;;4.69;73.74
6567;BME280;3317;43.994;22.878;2023-03-18T06:01:43;101731.13;;;4.70;73.93
6567;BME280;3317;43.994;22.878;2023-03-18T06:04:10;101724.59;;;4.74;74.67
6567;BME280;3317;43.994;22.878;2023-03-18T06:06:37;101716.34;;;4.77;74.53
6567;BME280;3317;43.994;22.878;2023-03-18T06:09:06;101730.53;;;4.79;75.16
6567;BME280;3317;43.994;22.878;2023-03-18T06:11:33;101726.34;;;4.89;75.17
6567;BME280;3317;43.994;22.878;2023-03-18T06:14:01;101731.59;;;5.07;74.76
6567;BME280;3317;43.994;22.878;2023-03-18T06:16:29;101733.41;;;5.06;75.25
6567;BME280;3317;43.994;22.878;2023-03-18T06:18:56;101732.72;;;5.03;74.92
6567;BME280;3317;43.994;22.878;2023-03-18T06:21:23;101747.22;;;5.00;75.35
6567;BME280;3317;43.994;22.878;2023-03-18T06:23:51;101741.53;;;5.05;75.45
6567;BME280;3317;43.994;22.878;2023-03-18T06:26:18;101732.34;;;5.09;75.76
6567;BME280;3317;43.994;22.878;2023-03-18T06:28:45;101746.56;;;5.11;75.55
6567;BME280;3317;43.994;22.878;2023-03-18T06:31:14;101747.31;;;5.13;75.58
6567;BME280;3317;43.994;22.878;2023-03-18T06:33:41;101737.75;;;5.24;75.94
6567;BME280;3317;43.994;22.878;2023-03-18T06:36:08;101747.53;;;5.25;75.55
6567;BME280;3317;43.994;22.878;2023-03-18T06:38:36;101745.13;;;5.20;74.84
6567;BME280;3317;43.994;22.878;2023-03-18T06:41:03;101753.69;;;5.27;74.85
6567;BME280;3317;43.994;22.878;2023-03-18T06:43:30;101750.22;;;5.39;75.07
6567;BME280;3317;43.994;22.878;2023-03-18T06:45:58;101746.03;;;5.49;74.96
6567;BME280;3317;43.994;22.878;2023-03-18T06:48:26;101749.47;;;5.52;74.78
6567;BME280;3317;43.994;22.878;2023-03-18T06:50:53;101737.66;;;5.69;74.18
6567;BME280;3317;43.994;22.878;2023-03-18T06:53:20;101760.81;;;5.86;73.72
6567;BME280;3317;43.994;22.878;2023-03-18T06:55:48;101748.09;;;5.88;73.06
6567;BME280;3317;43.994;22.878;2023-03-18T06:58:15;101745.78;;;5.82;72.46
6567;BME280;3317;43.994;22.878;2023-03-18T07:00:43;101760.53;;;6.05;72.60
6567;BME280;3317;43.994;22.878;2023-03-18T07:03:12;101758.09;;;6.15;72.15
6567;BME280;3317;43.994;22.878;2023-03-18T07:05:41;101764.13;;;6.18;72.60
6567;BME280;3317;43.994;22.878;2023-03-18T07:08:09;101771.03;;;6.23;71.68
6567;BME280;3317;43.994;22.878;2023-03-18T07:10:36;101772.47;;;6.28;71.77
6567;BME280;3317;43.994;22.878;2023-03-18T07:13:04;101773.91;;;6.34;71.15
6567;BME280;3317;43.994;22.878;2023-03-18T07:15:30;101784.66;;;6.34;71.31
6567;BME280;3317;43.994;22.878;2023-03-18T07:17:58;101773.38;;;6.42;71.20
6567;BME280;3317;43.994;22.878;2023-03-18T07:20:27;101793.66;;;6.47;71.19
6567;BME280;3317;43.994;22.878;2023-03-18T07:22:55;101781.84;;;6.50;71.27
6567;BME280;3317;43.994;22.878;2023-03-18T07:25:22;101795.25;;;6.65;71.20
6567;BME280;3317;43.994;22.878;2023-03-18T07:27:49;101793.34;;;6.80;70.93
6567;BME280;3317;43.994;22.878;2023-03-18T07:30:17;101799.53;;;6.95;70.74
6567;BME280;3317;43.994;22.878;2023-03-18T07:32:44;101786.72;;;7.11;69.66
6567;BME280;3317;43.994;22.878;2023-03-18T07:35:11;101782.13;;;7.13;68.63
6567;BME280;3317;43.994;22.878;2023-03-18T07:37:39;101799.06;;;7.15;67.68
6567;BME280;3317;43.994;22.878;2023-03-18T07:40:09;101788.13;;;7.04;67.79
6567;BME280;3317;43.994;22.878;2023-03-18T07:42:37;101800.66;;;7.05;67.90
6567;BME280;3317;43.994;22.878;2023-03-18T07:45:05;101803.75;;;6.99;68.04
6567;BME280;3317;43.994;22.878;2023-03-18T07:47:32;101795.66;;;6.99;68.63
6567;BME280;3317;43.994;22.878;2023-03-18T07:49:59;101799.22;;;6.99;68.36
6567;BME280;3317;43.994;22.878;2023-03-18T07:52:26;101799.75;;;7.04;67.95
6567;BME280;3317;43.994;22.878;2023-03-18T07:54:53;101803.47;;;7.16;67.88
6567;BME280;3317;43.994;22.878;2023-03-18T07:57:22;101805.31;;;7.29;67.95
6567;BME280;3317;43.994;22.878;2023-03-18T07:59:48;101814.09;;;7.58;67.60
6567;BME280;3317;43.994;22.878;2023-03-18T08:02:16;101806.06;;;7.70;67.39
6567;BME280;3317;43.994;22.878;2023-03-18T08:04:43;101806.19;;;7.94;67.50
6567;BME280;3317;43.994;22.878;2023-03-18T08:07:11;101796.69;;;7.88;67.09
6567;BME280;3317;43.994;22.878;2023-03-18T08:09:38;101814.38;;;8.06;67.09
6567;BME280;3317;43.994;22.878;2023-03-18T08:12:06;101819.72;;;8.18;66.92
6567;BME280;3317;43.994;22.878;2023-03-18T08:14:34;101823.38;;;8.30;66.86
6567;BME280;3317;43.994;22.878;2023-03-18T08:17:01;101816.25;;;8.29;66.91
6567;BME280;3317;43.994;22.878;2023-03-18T08:19:29;101810.88;;;8.16;67.87
6567;BME280;3317;43.994;22.878;2023-03-18T08:21:56;101807.75;;;8.10;68.05
6567;BME280;3317;43.994;22.878;2023-03-18T08:24:23;101803.44;;;8.20;68.55
6567;BME280;3317;43.994;22.878;2023-03-18T08:26:50;101820.28;;;8.24;68.49
6567;BME280;3317;43.994;22.878;2023-03-18T08:29:17;101819.44;;;8.10;68.91
6567;BME280;3317;43.994;22.878;2023-03-18T08:31:45;101820.63;;;8.06;69.02
6567;BME280;3317;43.994;22.878;2023-03-18T08:34:12;101809.91;;;8.17;69.36
6567;BME280;3317;43.994;22.878;2023-03-18T08:36:40;101822.97;;;8.11;69.90
6567;BME280;3317;43.994;22.878;2023-03-18T08:39:07;101818.22;;;8.14;69.79
6567;BME280;3317;43.994;22.878;2023-03-18T08:41:34;101826.66;;;8.23;69.41
6567;BME280;3317;43.994;22.878;2023-03-18T08:44:01;101819.81;;;8.30;69.95
6567;BME280;3317;43.994;22.878;2023-03-18T08:46:30;101824.88;;;8.35;70.12
6567;BME280;3317;43.994;22.878;2023-03-18T08:48:58;101815.00;;;8.46;70.14
6567;BME280;3317;43.994;22.878;2023-03-18T08:51:25;101794.84;;;8.26;70.78
6567;BME280;3317;43.994;22.878;2023-03-18T08:53:53;101823.81;;;8.37;71.01
6567;BME280;3317;43.994;22.878;2023-03-18T08:56:21;101830.47;;;8.44;71.26
6567;BME280;3317;43.994;22.878;2023-03-18T08:58:48;101831.88;;;8.50;70.49
6567;BME280;3317;43.994;22.878;2023-03-18T09:01:15;101834.16;;;8.56;68.86
6567;BME280;3317;43.994;22.878;2023-03-18T09:03:44;101769.81;;;8.24;68.10
6567;BME280;3317;43.994;22.878;2023-03-18T09:06:12;101823.16;;;8.71;67.13
6567;BME280;3317;43.994;22.878;2023-03-18T09:08:39;101836.91;;;8.68;64.56
6567;BME280;3317;43.994;22.878;2023-03-18T09:11:07;101818.84;;;8.68;64.34
6567;BME280;3317;43.994;22.878;2023-03-18T09:13:35;101829.88;;;8.65;64.47
6567;BME280;3317;43.994;22.878;2023-03-18T09:16:03;101826.22;;;8.66;64.67
6567;BME280;3317;43.994;22.878;2023-03-18T09:18:31;101832.00;;;8.73;64.56
6567;BME280;3317;43.994;22.878;2023-03-18T09:20:59;101820.69;;;8.68;63.71
6567;BME280;3317;43.994;22.878;2023-03-18T09:23:28;101836.19;;;8.77;63.55
6567;BME280;3317;43.994;22.878;2023-03-18T09:25:56;101831.88;;;8.99;62.95
6567;BME280;3317;43.994;22.878;2023-03-18T09:28:24;101846.44;;;9.09;63.16
6567;BME280;3317;43.994;22.878;2023-03-18T09:30:51;101822.28;;;8.95;63.07
6567;BME280;3317;43.994;22.878;2023-03-18T09:33:20;101834.06;;;9.18;62.42
6567;BME280;3317;43.994;22.878;2023-03-18T09:35:47;101828.53;;;9.31;62.56
6567;BME280;3317;43.994;22.878;2023-03-18T09:38:17;101829.84;;;9.50;62.55
6567;BME280;3317;43.994;22.878;2023-03-18T09:40:53;101832.56;;;9.61;61.46
6567;BME280;3317;43.994;22.878;2023-03-18T09:43:54;101821.47;;;10.10;61.71
6567;BME280;3317;43.994;22.878;2023-03-18T09:46:31;101836.50;;;10.37;58.62
6567;BME280;3317;43.994;22.878;2023-03-18T09:49:16;101834.66;;;10.37;56.28
6567;BME280;3317;43.994;22.878;2023-03-18T09:51:54;101823.69;;;10.27;55.58
6567;BME280;3317;43.994;22.878;2023-03-18T09:54:30;101829.22;;;10.26;55.18
6567;BME280;3317;43.994;22.878;2023-03-18T09:57:01;101833.81;;;10.37;53.94
6567;BME280;3317;43.994;22.878;2023-03-18T09:59:36;101828.84;;;10.65;54.04
6567;BME280;3317;43.994;22.878;2023-03-18T10:02:16;101843.22;;;10.77;53.11
6567;BME280;3317;43.994;22.878;2023-03-18T10:04:48;101838.84;;;10.85;51.64
6567;BME280;3317;43.994;22.878;2023-03-18T10:07:19;101831.00;;;10.82;51.31
6567;BME280;3317;43.994;22.878;2023-03-18T10:09:52;101824.56;;;10.83;50.94
6567;BME280;3317;43.994;22.878;2023-03-18T10:12:28;101815.56;;;10.94;50.77
6567;BME280;3317;43.994;22.878;2023-03-18T10:15:03;101827.38;;;10.93;51.45
6567;BME280;3317;43.994;22.878;2023-03-18T10:17:37;101817.00;;;10.98;50.32
6567;BME280;3317;43.994;22.878;2023-03-18T10:20:14;101799.13;;;10.96;49.81
6567;BME280;3317;43.994;22.878;2023-03-18T10:23:01;101808.66;;;11.11;50.62
6567;BME280;3317;43.994;22.878;2023-03-18T10:25:34;101812.84;;;11.37;50.00
6567;BME280;3317;43.994;22.878;2023-03-18T10:28:29;101808.44;;;11.67;46.80
6567;BME280;3317;43.994;22.878;2023-03-18T10:31:06;101813.16;;;11.65;46.75
6567;BME280;3317;43.994;22.878;2023-03-18T10:33:42;101823.88;;;11.45;46.88
6567;BME280;3317;43.994;22.878;2023-03-18T10:36:17;101813.56;;;11.60;47.63
6567;BME280;3317;43.994;22.878;2023-03-18T10:38:48;101793.38;;;11.53;46.34
6567;BME280;3317;43.994;22.878;2023-03-18T10:41:20;101766.38;;;11.51;46.25
6567;BME280;3317;43.994;22.878;2023-03-18T10:43:51;101807.22;;;12.02;45.63
6567;BME280;3317;43.994;22.878;2023-03-18T10:46:19;101803.84;;;12.30;46.06
6567;BME280;3317;43.994;22.878;2023-03-18T10:48:49;101792.84;;;12.31;41.94
6567;BME280;3317;43.994;22.878;2023-03-18T10:51:20;101806.44;;;12.31;42.10
6567;BME280;3317;43.994;22.878;2023-03-18T10:53:55;101793.91;;;12.60;44.21
6567;BME280;3317;43.994;22.878;2023-03-18T10:56:24;101781.59;;;12.75;43.53
6567;BME280;3317;43.994;22.878;2023-03-18T10:58:53;101778.91;;;12.95;43.38
6567;BME280;3317;43.994;22.878;2023-03-18T11:01:22;101796.63;;;12.79;41.26
6567;BME280;3317;43.994;22.878;2023-03-18T11:03:52;101778.16;;;12.53;41.44
6567;BME280;3317;43.994;22.878;2023-03-18T11:06:22;101765.84;;;12.39;41.96
6567;BME280;3317;43.994;22.878;2023-03-18T11:08:59;101782.75;;;12.43;41.60
6567;BME280;3317;43.994;22.878;2023-03-18T11:11:28;101782.03;;;12.51;41.46
6567;BME280;3317;43.994;22.878;2023-03-18T11:14:00;101774.59;;;12.43;41.06
6567;BME280;3317;43.994;22.878;2023-03-18T11:16:36;101694.84;;;12.23;41.06
6567;BME280;3317;43.994;22.878;2023-03-18T11:19:23;101755.56;;;12.92;41.33
6567;BME280;3317;43.994;22.878;2023-03-18T11:21:59;101755.94;;;13.07;41.02
6567;BME280;3317;43.994;22.878;2023-03-18T11:24:29;101748.91;;;13.34;41.03
6567;BME280;3317;43.994;22.878;2023-03-18T11:27:34;101739.00;;;13.33;39.38
6567;BME280;3317;43.994;22.878;2023-03-18T11:30:18;101745.78;;;13.19;38.42
6567;BME280;3317;43.994;22.878;2023-03-18T11:32:55;101727.84;;;13.17;38.19
6567;BME280;3317;43.994;22.878;2023-03-18T11:35:24;101752.34;;;13.17;38.93
6567;BME280;3317;43.994;22.878;2023-03-18T11:38:01;101727.31;;;13.03;39.91
6567;BME280;3317;43.994;22.878;2023-03-18T11:40:28;101752.22;;;13.18;39.16
6567;BME280;3317;43.994;22.878;2023-03-18T11:42:58;101750.44;;;13.37;40.10
6567;BME280;3317;43.994;22.878;2023-03-18T11:45:42;101748.47;;;13.29;39.08
6567;BME280;3317;43.994;22.878;2023-03-18T11:48:15;101738.31;;;13.21;39.00
6567;BME280;3317;43.994;22.878;2023-03-18T11:50:56;101735.47;;;13.13;39.39
6567;BME280;3317;43.994;22.878;2023-03-18T11:53:31;101738.91;;;13.15;39.55
6567;BME280;3317;43.994;22.878;2023-03-18T11:56:04;101736.06;;;13.07;39.85
6567;BME280;3317;43.994;22.878;2023-03-18T11:58:59;101735.63;;;13.12;40.24
6567;BME280;3317;43.994;22.878;2023-03-18T12:01:39;101723.47;;;12.96;40.57
6567;BME280;3317;43.994;22.878;2023-03-18T12:04:29;101720.84;;;13.14;41.02
6567;BME280;3317;43.994;22.878;2023-03-18T12:07:17;101716.81;;;13.28;40.60
6567;BME280;3317;43.994;22.878;2023-03-18T12:09:52;101713.97;;;13.10;39.42
6567;BME280;3317;43.994;22.878;2023-03-18T12:12:38;101718.44;;;13.01;39.34
6567;BME280;3317;43.994;22.878;2023-03-18T12:15:19;101711.75;;;12.86;39.41
6567;BME280;3317;43.994;22.878;2023-03-18T12:18:00;101718.16;;;13.04;40.59
6567;BME280;3317;43.994;22.878;2023-03-18T12:20:48;101709.41;;;13.01;39.80
6567;BME280;3317;43.994;22.878;2023-03-18T12:23:31;101722.78;;;12.74;38.69
6567;BME280;3317;43.994;22.878;2023-03-18T12:26:03;101705.44;;;12.75;39.00
6567;BME280;3317;43.994;22.878;2023-03-18T12:28:56;101720.91;;;12.65;37.08
6567;BME280;3317;43.994;22.878;2023-03-18T12:31:48;101715.34;;;12.57;38.09
6567;BME280;3317;43.994;22.878;2023-03-18T12:34:29;101723.63;;;12.65;39.32
6567;BME280;3317;43.994;22.878;2023-03-18T12:37:10;101720.91;;;12.65;38.78
6567;BME280;3317;43.994;22.878;2023-03-18T12:40:09;101708.88;;;12.77;38.52
6567;BME280;3317;43.994;22.878;2023-03-18T12:42:53;101717.19;;;12.66;38.58
6567;BME280;3317;43.994;22.878;2023-03-18T12:45:24;101714.34;;;12.67;38.32
6567;BME280;3317;43.994;22.878;2023-03-18T12:47:56;101709.59;;;12.79;38.54
6567;BME280;3317;43.994;22.878;2023-03-18T12:50:31;101723.34;;;12.68;38.08
6567;BME280;3317;43.994;22.878;2023-03-18T12:53:03;101719.34;;;12.52;38.19
6567;BME280;3317;43.994;22.878;2023-03-18T12:55:36;101720.75;;;12.37;38.51
6567;BME280;3317;43.994;22.878;2023-03-18T12:58:06;101720.03;;;12.25;38.41
6567;BME280;3317;43.994;22.878;2023-03-18T13:00:40;101708.72;;;12.30;38.83
6567;BME280;3317;43.994;22.878;2023-03-18T13:03:20;101713.19;;;12.41;38.65
6567;BME280;3317;43.994;22.878;2023-03-18T13:05:54;101715.63;;;12.34;38.71
6567;BME280;3317;43.994;22.878;2023-03-18T13:08:39;101714.91;;;12.32;37.89
6567;BME280;3317;43.994;22.878;2023-03-18T13:11:13;101715.44;;;12.16;38.43
6567;BME280;3317;43.994;22.878;2023-03-18T13:13:50;101721.72;;;12.06;37.82
6567;BME280;3317;43.994;22.878;2023-03-18T13:16:18;101718.88;;;12.08;37.48
6567;BME280;3317;43.994;22.878;2023-03-18T13:18:48;101703.38;;;11.98;37.87
6567;BME280;3317;43.994;22.878;2023-03-18T13:21:21;101709.25;;;12.04;38.74
6567;BME280;3317;43.994;22.878;2023-03-18T13:24:08;101717.94;;;11.97;38.52